Pagrindinis puslapis
METAR-TAF:

METAR-TAF

Oro uostai :

Bukareštas-Băneasa, Rumunija

platuma: 44-30N, ilguma: 026-08E, Aukštis: 90 m

Dabartinis oras

Ataskaita buvo paskelbta 25 minutes, ne 17:30 UTC
Ramus vėjas
Temperatūra 19°C
Drėgmė 56%
Slėgis 1022 hPa
Matomumas 10 km arba daugiau
nėra debesų žemiau 1500 m ir nėra kamuolinių lietaus debesų

METAR: LRBS 151730Z 00000KT CAVOK 19/10 Q1022 NOSIG

Laikas: 20:55 (17:55 UTC)

Prognozė

Ataskaita buvo paskelbta 55 minutes, ne 17:00 UTC
Prognozė galioja nuo 15 metu 18 UTC su 16 metu 18 UTC
Vėjas 4 kt nuo kintamojo kryptimis
Matomumas 10 km arba daugiau
nėra debesų žemiau 1500 m ir nėra kamuolinių lietaus debesų
Tapsmas
nuo 16 metu 05 UTC su 16 metu 07 UTC
Vėjas 10 kt iš Vakarų
Tapsmas
nuo 16 metu 15 UTC su 16 metu 17 UTC
Vėjas 4 kt nuo kintamojo kryptimis

TAF: LRBS 151700Z 1518/1618 VRB04KT CAVOK BECMG 1605/1607 28010KT BECMG 1615/1617 VRB04KT

Orai ataskaitas ir orų prognozės (METAR, TAF).

turimą stotys yra geltonos ir raudonos taškus žemėlapyje.

Perkelti pele per norėdami pamatyti stoties vardą.

Tada spustelėkite, norėdami matyti oro stebėjimo ir prognozės.

Norėdami pakeisti žemėlapį: spustelėkite ant žalios mygtukų su juodo kryžiaus žemyn,; žalią mygtuką su brūkšneliu, jei norite nutolinti; arba žalių rodyklių gretimoms žemėlapius.


METAR-TAF: